createdAt,value
2023-04-18T00:00:42.379Z,6.50
2023-04-18T00:03:09.809Z,6.90
2023-04-18T00:05:38.040Z,6.38
2023-04-18T00:08:05.689Z,6.60
2023-04-18T00:10:33.300Z,6.40
2023-04-18T00:13:00.603Z,5.80
2023-04-18T00:15:29.414Z,6.00
2023-04-18T00:17:57.197Z,6.18
2023-04-18T00:20:27.024Z,6.38
2023-04-18T00:22:55.105Z,5.68
2023-04-18T00:25:22.340Z,6.22
2023-04-18T00:27:49.668Z,5.82
2023-04-18T00:30:18.218Z,5.90
2023-04-18T00:32:45.432Z,6.00
2023-04-18T00:35:12.575Z,5.63
2023-04-18T00:37:39.661Z,6.18
2023-04-18T00:40:07.356Z,7.18
2023-04-18T00:42:34.501Z,5.80
2023-04-18T00:45:01.868Z,5.32
2023-04-18T00:47:34.215Z,6.35
2023-04-18T00:50:03.181Z,8.25
2023-04-18T00:52:33.894Z,6.00
2023-04-18T00:55:01.500Z,6.25
2023-04-18T00:57:29.948Z,6.43
2023-04-18T00:59:57.335Z,5.75
2023-04-18T01:02:26.598Z,6.25
2023-04-18T01:07:20.556Z,6.80
2023-04-18T01:09:48.078Z,6.63
2023-04-18T01:12:15.086Z,6.22
2023-04-18T01:14:43.195Z,6.70
2023-04-18T01:17:10.869Z,6.35
2023-04-18T01:19:37.991Z,5.97
2023-04-18T01:22:08.040Z,6.63
2023-04-18T01:24:35.958Z,5.85
2023-04-18T01:27:03.380Z,6.43
2023-04-18T01:29:30.633Z,6.03
2023-04-18T01:31:57.974Z,6.85
2023-04-18T01:34:25.034Z,6.60
2023-04-18T01:36:52.090Z,7.25
2023-04-18T01:39:19.254Z,6.38
2023-04-18T01:41:46.375Z,6.03
2023-04-18T01:44:13.659Z,6.25
2023-04-18T01:46:41.237Z,6.38
2023-04-18T01:49:09.188Z,5.82
2023-04-18T01:51:38.940Z,6.43
2023-04-18T01:54:06.155Z,7.47
2023-04-18T01:56:33.264Z,5.95
2023-04-18T01:59:01.788Z,6.38
2023-04-18T02:01:28.883Z,6.40
2023-04-18T02:03:58.834Z,5.70
2023-04-18T02:06:26.430Z,6.00
2023-04-18T02:08:53.619Z,6.38
2023-04-18T02:11:20.832Z,6.72
2023-04-18T02:13:47.953Z,6.22
2023-04-18T02:16:15.176Z,6.50
2023-04-18T02:18:44.021Z,7.18
2023-04-18T02:21:11.379Z,6.82
2023-04-18T02:23:38.539Z,7.20
2023-04-18T02:26:05.756Z,7.40
2023-04-18T02:28:32.884Z,6.38
2023-04-18T02:31:03.774Z,8.00
2023-04-18T02:33:30.979Z,6.25
2023-04-18T02:35:58.137Z,6.45
2023-04-18T02:38:25.269Z,7.47
2023-04-18T02:40:52.712Z,7.63
2023-04-18T02:43:21.529Z,7.22
2023-04-18T02:45:49.031Z,7.05
2023-04-18T02:48:16.194Z,7.78
2023-04-18T02:50:44.548Z,7.13
2023-04-18T02:53:11.699Z,7.10
2023-04-18T02:55:59.455Z,7.03
2023-04-18T02:58:36.523Z,6.97
2023-04-18T03:01:22.281Z,6.65
2023-04-18T03:03:55.101Z,6.40
2023-04-18T03:06:44.072Z,8.48
2023-04-18T03:09:11.678Z,7.28
2023-04-18T03:11:45.060Z,7.85
2023-04-18T03:14:13.099Z,7.32
2023-04-18T03:16:46.791Z,6.95
2023-04-18T03:19:17.957Z,7.28
2023-04-18T03:21:45.500Z,7.30
2023-04-18T03:24:12.822Z,7.63
2023-04-18T03:26:41.704Z,7.90
2023-04-18T03:29:09.439Z,7.40
2023-04-18T03:31:36.610Z,7.80
2023-04-18T03:34:03.852Z,7.55
2023-04-18T03:36:31.507Z,6.97
2023-04-18T03:38:59.194Z,7.43
2023-04-18T03:41:27.144Z,8.25
2023-04-18T03:43:56.137Z,7.03
2023-04-18T03:46:24.710Z,7.03
2023-04-18T03:48:54.473Z,7.18
2023-04-18T03:51:22.075Z,7.82
2023-04-18T03:53:49.193Z,7.65
2023-04-18T03:56:21.178Z,7.63
2023-04-18T03:58:51.487Z,7.45
2023-04-18T04:01:20.472Z,7.03
2023-04-18T04:03:47.865Z,6.78
2023-04-18T04:06:15.754Z,8.38
2023-04-18T04:08:49.564Z,8.05
2023-04-18T04:11:23.970Z,8.13
2023-04-18T04:13:53.806Z,8.18
2023-04-18T04:16:25.764Z,7.68
2023-04-18T04:18:59.121Z,8.02
2023-04-18T04:21:36.999Z,8.13
2023-04-18T04:24:07.131Z,8.60
2023-04-18T04:26:50.927Z,8.40
2023-04-18T04:29:21.929Z,7.45
2023-04-18T04:31:49.401Z,8.00
2023-04-18T04:34:31.792Z,8.43
2023-04-18T04:37:01.581Z,8.10
2023-04-18T04:39:40.712Z,7.82
2023-04-18T04:42:38.732Z,7.85
2023-04-18T04:45:12.583Z,7.82
2023-04-18T04:47:40.004Z,8.27
2023-04-18T04:50:08.515Z,7.57
2023-04-18T04:52:35.781Z,9.35
2023-04-18T04:55:03.861Z,8.68
2023-04-18T04:57:31.981Z,9.20
2023-04-18T05:00:00.158Z,9.15
2023-04-18T05:02:32.090Z,7.95
2023-04-18T05:04:59.598Z,8.45
2023-04-18T05:07:26.945Z,8.95
2023-04-18T05:09:53.999Z,8.65
2023-04-18T05:12:21.052Z,9.35
2023-04-18T05:14:48.147Z,8.50
2023-04-18T05:17:15.203Z,8.35
2023-04-18T05:19:44.274Z,7.55
2023-04-18T05:24:38.344Z,8.85
2023-04-18T05:27:06.168Z,9.38
2023-04-18T05:29:33.487Z,8.85
2023-04-18T05:32:01.376Z,8.80
2023-04-18T05:34:28.486Z,9.40
2023-04-18T05:36:55.629Z,10.75
2023-04-18T05:39:23.081Z,10.48
2023-04-18T05:41:50.149Z,10.27
2023-04-18T05:44:18.304Z,10.38
2023-04-18T05:46:46.648Z,9.95
2023-04-18T05:49:13.937Z,9.38
2023-04-18T05:51:41.014Z,9.77
2023-04-18T05:54:08.050Z,10.07
2023-04-18T05:56:35.169Z,10.60
2023-04-18T05:59:02.358Z,9.48
2023-04-18T06:01:29.484Z,10.80
2023-04-18T06:03:56.838Z,11.43
2023-04-18T06:06:24.348Z,10.57
2023-04-18T06:08:51.401Z,10.45
2023-04-18T06:11:21.273Z,10.85
2023-04-18T06:13:48.609Z,11.93
2023-04-18T06:16:16.152Z,10.30
2023-04-18T06:18:43.316Z,10.30
2023-04-18T06:21:10.464Z,10.35
2023-04-18T06:23:38.629Z,11.75
2023-04-18T06:26:07.324Z,12.02
2023-04-18T06:28:34.346Z,11.90
2023-04-18T06:31:01.428Z,11.23
2023-04-18T06:33:28.571Z,10.13
2023-04-18T06:35:55.868Z,11.15
2023-04-18T06:38:23.114Z,10.77
2023-04-18T06:40:50.202Z,11.57
2023-04-18T06:43:17.413Z,12.20
2023-04-18T06:45:46.104Z,12.38
2023-04-18T06:48:13.530Z,11.43
2023-04-18T06:50:40.926Z,10.40
2023-04-18T06:53:07.994Z,10.65
2023-04-18T06:55:36.238Z,11.20
2023-04-18T06:58:03.527Z,12.07
2023-04-18T07:00:30.822Z,10.68
2023-04-18T07:02:58.141Z,10.65
2023-04-18T07:05:25.551Z,11.25
2023-04-18T07:07:52.578Z,11.32
2023-04-18T07:10:19.859Z,11.13
2023-04-18T07:12:47.677Z,9.98
2023-04-18T07:15:14.954Z,10.43
2023-04-18T07:17:42.016Z,9.98
2023-04-18T07:20:09.584Z,10.90
2023-04-18T07:22:37.514Z,10.05
2023-04-18T07:25:04.969Z,9.88
2023-04-18T07:27:34.793Z,11.20
2023-04-18T07:30:02.448Z,11.20
2023-04-18T07:32:33.577Z,11.23
2023-04-18T07:35:01.546Z,11.88
2023-04-18T07:37:32.130Z,12.45
2023-04-18T07:39:59.407Z,12.10
2023-04-18T07:42:26.908Z,12.07
2023-04-18T07:44:59.040Z,14.18
2023-04-18T07:47:29.885Z,11.85
2023-04-18T07:49:58.038Z,10.85
2023-04-18T07:52:25.158Z,11.38
2023-04-18T07:54:52.233Z,11.93
2023-04-18T07:57:19.423Z,10.85
2023-04-18T07:59:46.540Z,10.48
2023-04-18T08:02:13.649Z,11.35
2023-04-18T08:04:41.113Z,10.68
2023-04-18T08:07:08.409Z,10.65
2023-04-18T08:09:35.579Z,9.80
2023-04-18T08:12:02.892Z,9.63
2023-04-18T08:14:29.999Z,10.13
2023-04-18T08:16:57.045Z,10.18
2023-04-18T08:19:24.410Z,10.55
2023-04-18T08:21:52.194Z,9.88
2023-04-18T08:24:19.342Z,10.32
2023-04-18T08:26:46.533Z,10.52
2023-04-18T08:29:14.610Z,10.45
2023-04-18T08:31:41.920Z,10.90
2023-04-18T08:34:09.099Z,11.45
2023-04-18T08:36:36.240Z,10.57
2023-04-18T08:39:03.603Z,9.68
2023-04-18T08:41:36.148Z,10.25
2023-04-18T08:44:03.947Z,11.45
2023-04-18T08:46:36.030Z,9.88
2023-04-18T08:49:06.364Z,10.23
2023-04-18T08:51:33.947Z,9.82
2023-04-18T08:54:04.415Z,8.80
2023-04-18T08:56:32.061Z,9.02
2023-04-18T08:59:00.532Z,9.57
2023-04-18T09:01:51.222Z,10.00
2023-04-18T09:04:38.389Z,9.23
2023-04-18T09:07:09.046Z,9.82
2023-04-18T09:09:46.415Z,9.43
2023-04-18T09:12:19.608Z,11.25
2023-04-18T09:14:48.026Z,9.90
2023-04-18T09:17:21.948Z,10.15
2023-04-18T09:19:50.381Z,9.98
2023-04-18T09:22:18.223Z,11.68
2023-04-18T09:24:53.415Z,10.10
2023-04-18T09:27:23.265Z,19.08
2023-04-18T09:29:55.797Z,10.18
2023-04-18T09:32:27.247Z,11.43
2023-04-18T09:34:59.794Z,9.93
2023-04-18T09:37:29.014Z,8.18
2023-04-18T09:39:56.317Z,8.05
2023-04-18T09:42:26.730Z,7.18
2023-04-18T09:45:06.920Z,8.30
2023-04-18T09:47:36.783Z,7.90
2023-04-18T09:50:09.850Z,7.68
2023-04-18T09:52:41.491Z,7.35
2023-04-18T09:55:11.163Z,7.30
2023-04-18T09:57:42.772Z,7.70
2023-04-18T10:00:20.484Z,7.55
2023-04-18T10:02:57.917Z,7.80
2023-04-18T10:05:35.669Z,7.95
2023-04-18T10:08:03.765Z,7.43
2023-04-18T10:10:31.009Z,7.80
2023-04-18T10:12:59.733Z,8.50
2023-04-18T10:15:29.697Z,7.65
2023-04-18T10:18:10.430Z,7.43
2023-04-18T10:20:37.528Z,7.70
2023-04-18T10:23:29.318Z,15.80
2023-04-18T10:25:56.598Z,7.68
2023-04-18T10:28:24.757Z,7.07
2023-04-18T10:30:54.313Z,6.80
2023-04-18T10:33:41.018Z,7.05
2023-04-18T10:36:09.517Z,7.13
2023-04-18T10:38:45.390Z,7.03
2023-04-18T10:41:19.334Z,8.07
2023-04-18T10:44:15.099Z,7.85
2023-04-18T10:47:04.036Z,6.85
2023-04-18T10:49:34.180Z,7.03
2023-04-18T10:52:02.634Z,7.60
2023-04-18T10:54:35.966Z,6.93
2023-04-18T10:57:04.719Z,7.43
2023-04-18T10:59:34.308Z,6.53
2023-04-18T11:02:24.323Z,7.78
2023-04-18T11:04:56.431Z,7.28
2023-04-18T11:07:37.973Z,7.05
2023-04-18T11:10:09.690Z,8.43
2023-04-18T11:12:39.253Z,6.72
2023-04-18T11:15:23.215Z,7.85
2023-04-18T11:17:58.148Z,6.95
2023-04-18T11:22:57.681Z,7.40
2023-04-18T11:25:32.585Z,7.32
2023-04-18T11:28:01.566Z,7.50
2023-04-18T11:30:37.056Z,6.65
2023-04-18T11:33:14.159Z,7.55
2023-04-18T11:35:45.446Z,8.70
2023-04-18T11:38:15.967Z,7.68
2023-04-18T11:40:50.200Z,7.10
2023-04-18T11:43:22.496Z,7.18
2023-04-18T11:45:58.835Z,7.32
2023-04-18T11:48:36.601Z,8.45
2023-04-18T11:51:04.834Z,7.57
2023-04-18T11:53:36.637Z,6.78
2023-04-18T11:56:05.650Z,7.03
2023-04-18T11:58:34.304Z,6.97
2023-04-18T12:01:22.778Z,6.72
2023-04-18T12:04:07.806Z,6.70
2023-04-18T12:06:52.412Z,7.45
2023-04-18T12:09:22.831Z,7.43
2023-04-18T12:12:03.239Z,7.35
2023-04-18T12:14:30.924Z,7.57
2023-04-18T12:16:58.017Z,7.78
2023-04-18T12:19:30.050Z,7.82
2023-04-18T12:22:06.875Z,8.10
2023-04-18T12:24:34.621Z,7.95
2023-04-18T12:27:02.026Z,6.90
2023-04-18T12:29:29.732Z,7.70
2023-04-18T12:31:56.990Z,7.60
2023-04-18T12:34:24.204Z,7.50
2023-04-18T12:36:51.293Z,7.60
2023-04-18T12:39:18.372Z,7.30
2023-04-18T12:41:46.337Z,7.55
2023-04-18T12:44:14.257Z,8.13
2023-04-18T12:46:41.485Z,7.45
2023-04-18T12:49:08.705Z,8.55
2023-04-18T12:51:35.868Z,7.85
2023-04-18T12:54:03.098Z,9.07
2023-04-18T12:56:30.206Z,8.32
2023-04-18T12:58:57.280Z,8.25
2023-04-18T13:01:24.462Z,7.90
2023-04-18T13:04:03.892Z,8.32
2023-04-18T13:06:38.517Z,7.60
2023-04-18T13:09:05.674Z,8.07
2023-04-18T13:11:32.709Z,8.27
2023-04-18T13:14:00.288Z,8.50
2023-04-18T13:16:27.421Z,7.72
2023-04-18T13:18:54.480Z,9.48
2023-04-18T13:21:25.040Z,8.20
2023-04-18T13:23:52.299Z,7.22
2023-04-18T13:26:19.407Z,8.50
2023-04-18T13:28:46.620Z,7.85
2023-04-18T13:31:16.347Z,8.38
2023-04-18T13:33:44.123Z,8.35
2023-04-18T13:36:11.279Z,7.95
2023-04-18T13:38:38.817Z,8.00
2023-04-18T13:41:12.361Z,7.63
2023-04-18T13:43:40.276Z,7.85
2023-04-18T13:46:07.437Z,7.55
2023-04-18T13:48:34.667Z,7.47
2023-04-18T13:51:02.755Z,7.50
2023-04-18T13:53:31.085Z,7.50
2023-04-18T13:55:59.205Z,7.32
2023-04-18T13:58:26.291Z,7.80
2023-04-18T14:00:54.084Z,6.95
2023-04-18T14:03:21.257Z,7.25
2023-04-18T14:05:48.541Z,7.35
2023-04-18T14:08:15.666Z,7.47
2023-04-18T14:10:42.725Z,7.22
2023-04-18T14:13:10.691Z,6.85
2023-04-18T14:15:37.804Z,6.57
2023-04-18T14:18:05.081Z,6.65
2023-04-18T14:20:34.788Z,6.90
2023-04-18T14:23:04.588Z,7.13
2023-04-18T14:25:31.631Z,7.07
2023-04-18T14:28:12.291Z,6.63
2023-04-18T14:30:40.518Z,7.20
2023-04-18T14:33:09.646Z,6.65
2023-04-18T14:35:37.258Z,6.60
2023-04-18T14:38:04.485Z,6.75
2023-04-18T14:40:32.928Z,6.47
2023-04-18T14:43:00.325Z,6.30
2023-04-18T14:45:27.577Z,6.72
2023-04-18T14:47:55.935Z,6.00
2023-04-18T14:50:23.229Z,6.30
2023-04-18T14:52:50.953Z,6.13
2023-04-18T14:55:20.167Z,6.45
2023-04-18T14:57:48.431Z,6.65
2023-04-18T15:00:15.987Z,6.90
2023-04-18T15:02:43.401Z,6.57
2023-04-18T15:05:11.691Z,6.80
2023-04-18T15:07:39.003Z,6.85
2023-04-18T15:10:06.718Z,6.43
2023-04-18T15:12:33.847Z,6.22
2023-04-18T15:15:01.030Z,5.88
2023-04-18T15:17:28.544Z,6.65
2023-04-18T15:19:55.641Z,6.95
2023-04-18T15:22:22.968Z,5.57
2023-04-18T15:24:50.189Z,6.13
2023-04-18T15:27:17.482Z,6.10
2023-04-18T15:29:44.689Z,5.97
2023-04-18T15:32:12.652Z,6.30
2023-04-18T15:34:39.949Z,6.25
2023-04-18T15:37:07.126Z,6.63
2023-04-18T15:39:34.327Z,6.07
2023-04-18T15:42:02.395Z,6.55
2023-04-18T15:44:30.735Z,6.22
2023-04-18T15:46:58.326Z,7.28
2023-04-18T15:49:25.904Z,7.60
2023-04-18T15:51:52.988Z,6.00
2023-04-18T15:54:20.118Z,6.93
2023-04-18T15:56:47.280Z,8.15
2023-04-18T15:59:14.799Z,6.15
2023-04-18T16:01:43.865Z,6.90
2023-04-18T16:04:13.193Z,6.78
2023-04-18T16:06:40.794Z,6.22
2023-04-18T16:09:08.242Z,7.03
2023-04-18T16:11:35.405Z,7.72
2023-04-18T16:14:02.432Z,6.05
2023-04-18T16:16:29.685Z,6.97
2023-04-18T16:18:56.806Z,7.03
2023-04-18T16:21:23.861Z,6.30
2023-04-18T16:23:51.115Z,7.28
2023-04-18T16:26:18.211Z,6.45
2023-04-18T16:28:45.555Z,6.22
2023-04-18T16:31:15.341Z,4.85
2023-04-18T16:33:43.051Z,5.80
2023-04-18T16:36:12.991Z,5.45
2023-04-18T16:38:40.201Z,5.78
2023-04-18T16:41:07.374Z,5.80
2023-04-18T16:43:38.089Z,10.65
2023-04-18T16:46:05.691Z,5.88
2023-04-18T16:48:32.893Z,6.18
2023-04-18T16:51:00.149Z,6.13
2023-04-18T16:53:27.363Z,5.90
2023-04-18T16:55:54.717Z,6.00
2023-04-18T16:58:23.280Z,6.35
2023-04-18T17:00:50.445Z,6.25
2023-04-18T17:03:17.724Z,6.28
2023-04-18T17:05:44.840Z,6.38
2023-04-18T17:08:11.943Z,6.97
2023-04-18T17:10:40.984Z,6.65
2023-04-18T17:13:08.018Z,5.55
2023-04-18T17:15:36.118Z,6.53
2023-04-18T17:18:03.916Z,7.30
2023-04-18T17:20:33.620Z,7.05
2023-04-18T17:23:00.868Z,6.57
2023-04-18T17:25:27.979Z,6.75
2023-04-18T17:27:55.022Z,7.97
2023-04-18T17:30:22.198Z,6.70
2023-04-18T17:32:49.405Z,6.63
2023-04-18T17:35:16.462Z,6.30
2023-04-18T17:37:43.532Z,6.32
2023-04-18T17:40:11.756Z,7.28
2023-04-18T17:42:38.898Z,6.68
2023-04-18T17:45:07.770Z,6.10
2023-04-18T17:47:36.724Z,5.97
2023-04-18T17:50:05.106Z,6.97
2023-04-18T17:52:32.821Z,6.68
2023-04-18T17:55:01.707Z,7.35
2023-04-18T17:57:33.778Z,7.05
2023-04-18T18:00:08.506Z,6.82
2023-04-18T18:02:44.845Z,6.38
2023-04-18T18:05:14.595Z,6.45
2023-04-18T18:07:45.981Z,6.35
2023-04-18T18:10:24.422Z,6.20
2023-04-18T18:12:51.547Z,6.68
2023-04-18T18:15:19.289Z,5.82
2023-04-18T18:17:57.344Z,5.88
2023-04-18T18:20:24.570Z,6.80
2023-04-18T18:22:52.916Z,5.30
2023-04-18T18:25:21.062Z,6.50
2023-04-18T18:27:48.400Z,6.20
2023-04-18T18:30:15.582Z,5.22
2023-04-18T18:35:33.212Z,4.75
2023-04-18T18:38:00.439Z,4.68
2023-04-18T18:40:27.597Z,5.85
2023-04-18T18:42:56.456Z,5.10
2023-04-18T18:45:26.308Z,5.72
2023-04-18T18:47:53.773Z,4.80
2023-04-18T18:50:20.877Z,4.55
2023-04-18T18:52:48.062Z,4.78
2023-04-18T18:55:16.459Z,5.05
2023-04-18T18:57:43.555Z,4.90
2023-04-18T19:00:11.295Z,6.13
2023-04-18T19:02:39.341Z,5.40
2023-04-18T19:05:07.598Z,5.90
2023-04-18T19:07:34.741Z,5.22
2023-04-18T19:10:14.767Z,6.05
2023-04-18T19:12:42.057Z,5.20
2023-04-18T19:15:09.824Z,5.30
2023-04-18T19:17:37.033Z,5.20
2023-04-18T19:20:04.681Z,4.82
2023-04-18T19:22:33.254Z,5.68
2023-04-18T19:25:00.993Z,5.47
2023-04-18T19:27:28.578Z,5.75
2023-04-18T19:29:55.821Z,6.90
2023-04-18T19:32:23.035Z,6.20
2023-04-18T19:34:51.404Z,5.75
2023-04-18T19:37:18.604Z,5.18
2023-04-18T19:39:45.649Z,6.18
2023-04-18T19:42:12.740Z,5.32
2023-04-18T19:44:39.779Z,5.30
2023-04-18T19:47:06.944Z,5.22
2023-04-18T19:49:34.154Z,5.55
2023-04-18T19:52:01.383Z,5.25
2023-04-18T19:54:28.491Z,5.00
2023-04-18T19:56:55.638Z,6.53
2023-04-18T19:59:22.707Z,4.88
2023-04-18T20:01:49.822Z,4.97
2023-04-18T20:04:17.268Z,5.07
2023-04-18T20:06:44.699Z,5.22
2023-04-18T20:09:16.847Z,5.13
2023-04-18T20:11:44.341Z,5.22
2023-04-18T20:14:11.482Z,6.25
2023-04-18T20:16:39.187Z,5.32
2023-04-18T20:19:06.553Z,5.10
2023-04-18T20:21:33.594Z,5.70
2023-04-18T20:24:00.791Z,5.30
2023-04-18T20:26:27.896Z,5.63
2023-04-18T20:28:55.111Z,5.05
2023-04-18T20:31:22.253Z,5.30
2023-04-18T20:33:49.390Z,5.43
2023-04-18T20:36:17.719Z,5.50
2023-04-18T20:38:45.126Z,5.60
2023-04-18T20:41:18.272Z,5.95
2023-04-18T20:43:46.974Z,5.72
2023-04-18T20:46:14.629Z,5.60
2023-04-18T20:48:41.892Z,5.40
2023-04-18T20:51:09.055Z,5.45
2023-04-18T20:53:36.212Z,6.00
2023-04-18T20:56:03.406Z,6.60
2023-04-18T20:58:30.701Z,5.97
2023-04-18T21:00:57.709Z,5.45
2023-04-18T21:03:25.214Z,5.70
2023-04-18T21:05:52.792Z,5.82
2023-04-18T21:08:19.985Z,4.75
2023-04-18T21:10:47.085Z,4.80
2023-04-18T21:13:14.268Z,6.90
2023-04-18T21:15:42.403Z,4.68
2023-04-18T21:18:09.889Z,5.22
2023-04-18T21:20:37.349Z,5.57
2023-04-18T21:23:04.617Z,4.68
2023-04-18T21:25:31.716Z,5.10
2023-04-18T21:27:58.887Z,5.05
2023-04-18T21:30:26.069Z,4.43
2023-04-18T21:32:53.327Z,4.55
2023-04-18T21:35:22.614Z,4.13
2023-04-18T21:37:51.458Z,4.68
2023-04-18T21:40:18.661Z,3.63
2023-04-18T21:42:46.527Z,4.00
2023-04-18T21:45:14.887Z,3.70
2023-04-18T21:47:42.075Z,4.47
2023-04-18T21:50:10.357Z,3.75
2023-04-18T21:52:37.675Z,4.38
2023-04-18T21:55:05.216Z,4.43
2023-04-18T21:57:33.751Z,4.43
2023-04-18T22:00:00.864Z,4.53
2023-04-18T22:02:28.759Z,4.43
2023-04-18T22:04:55.956Z,4.30
2023-04-18T22:07:24.722Z,4.07
2023-04-18T22:09:51.996Z,3.78
2023-04-18T22:12:19.334Z,4.55
2023-04-18T22:14:48.545Z,4.20
2023-04-18T22:17:16.016Z,4.40
2023-04-18T22:19:44.696Z,3.88
2023-04-18T22:22:12.435Z,4.03
2023-04-18T22:24:39.771Z,4.13
2023-04-18T22:27:07.179Z,3.92
2023-04-18T22:29:34.522Z,4.35
2023-04-18T22:32:01.803Z,4.10
2023-04-18T22:34:29.000Z,4.53
2023-04-18T22:36:56.024Z,4.60
2023-04-18T22:39:25.065Z,4.60
2023-04-18T22:41:52.157Z,4.53
2023-04-18T22:44:19.407Z,5.03
2023-04-18T22:46:48.175Z,4.80
2023-04-18T22:49:15.678Z,5.20
2023-04-18T22:51:44.059Z,6.55
2023-04-18T22:54:11.227Z,4.63
2023-04-18T22:56:38.260Z,5.90
2023-04-18T22:59:05.311Z,5.30
2023-04-18T23:01:32.452Z,4.97
2023-04-18T23:03:59.638Z,4.15
2023-04-18T23:06:28.456Z,4.82
2023-04-18T23:08:55.825Z,4.70
2023-04-18T23:11:22.865Z,4.95
2023-04-18T23:13:50.013Z,5.20
2023-04-18T23:16:17.089Z,4.70
2023-04-18T23:18:44.269Z,4.70
2023-04-18T23:21:11.331Z,5.10
2023-04-18T23:23:38.419Z,5.07
2023-04-18T23:26:15.299Z,5.00
2023-04-18T23:28:42.469Z,4.82
2023-04-18T23:31:10.007Z,5.53
2023-04-18T23:33:37.574Z,4.85
2023-04-18T23:36:05.015Z,4.90
2023-04-18T23:38:32.453Z,5.20
2023-04-18T23:40:59.543Z,4.78
2023-04-18T23:43:26.617Z,5.00
2023-04-18T23:45:53.637Z,5.80
2023-04-18T23:48:20.679Z,5.32
2023-04-18T23:50:49.237Z,5.40
2023-04-18T23:53:17.464Z,5.53
2023-04-18T23:55:44.603Z,5.03
2023-04-18T23:58:11.732Z,5.15
